sensor_id;sensor_type;location;lat;lon;timestamp;pressure;altitude;pressure_sealevel;temperature;humidity
13312;BME280;34033;48.672;9.376;2023-04-08T00:02:08;98778.22;;;9.94;86.29
13312;BME280;34033;48.672;9.376;2023-04-08T00:04:33;98781.00;;;9.94;86.87
13312;BME280;34033;48.672;9.376;2023-04-08T00:06:58;98789.38;;;9.94;86.86
13312;BME280;34033;48.672;9.376;2023-04-08T00:09:24;98791.00;;;9.95;86.51
13312;BME280;34033;48.672;9.376;2023-04-08T00:11:49;98790.25;;;9.98;86.72
13312;BME280;34033;48.672;9.376;2023-04-08T00:14:14;98787.84;;;9.97;86.24
13312;BME280;34033;48.672;9.376;2023-04-08T00:16:40;98787.03;;;9.96;86.27
13312;BME280;34033;48.672;9.376;2023-04-08T00:19:05;98788.66;;;9.97;86.38
13312;BME280;34033;48.672;9.376;2023-04-08T00:21:31;98789.06;;;9.99;86.81
13312;BME280;34033;48.672;9.376;2023-04-08T00:23:56;98783.13;;;10.04;86.23
13312;BME280;34033;48.672;9.376;2023-04-08T00:26:22;98787.53;;;10.05;85.88
13312;BME280;34033;48.672;9.376;2023-04-08T00:28:47;98792.31;;;10.05;86.06
13312;BME280;34033;48.672;9.376;2023-04-08T00:31:12;98788.34;;;10.06;85.99
13312;BME280;34033;48.672;9.376;2023-04-08T00:33:38;98788.25;;;9.99;85.69
13312;BME280;34033;48.672;9.376;2023-04-08T00:36:03;98792.22;;;9.98;85.51
13312;BME280;34033;48.672;9.376;2023-04-08T00:38:28;98782.63;;;9.95;86.41
13312;BME280;34033;48.672;9.376;2023-04-08T00:40:54;98789.75;;;9.93;86.54
13312;BME280;34033;48.672;9.376;2023-04-08T00:43:20;98797.78;;;9.94;87.01
13312;BME280;34033;48.672;9.376;2023-04-08T00:45:46;98799.44;;;9.99;86.90
13312;BME280;34033;48.672;9.376;2023-04-08T00:48:12;98797.09;;;10.04;87.02
13312;BME280;34033;48.672;9.376;2023-04-08T00:50:38;98795.59;;;10.11;86.70
13312;BME280;34033;48.672;9.376;2023-04-08T00:53:03;98794.78;;;10.10;85.95
13312;BME280;34033;48.672;9.376;2023-04-08T00:55:28;98805.59;;;10.12;86.22
13312;BME280;34033;48.672;9.376;2023-04-08T00:57:54;98807.13;;;10.09;85.59
13312;BME280;34033;48.672;9.376;2023-04-08T01:00:20;98805.97;;;10.10;85.70
13312;BME280;34033;48.672;9.376;2023-04-08T01:03:05;98811.94;;;10.09;85.67
13312;BME280;34033;48.672;9.376;2023-04-08T01:08:09;98810.38;;;10.11;85.71
13312;BME280;34033;48.672;9.376;2023-04-08T01:10:37;98805.97;;;10.10;85.57
13312;BME280;34033;48.672;9.376;2023-04-08T01:13:05;98805.97;;;10.10;85.32
13312;BME280;34033;48.672;9.376;2023-04-08T01:15:34;98812.34;;;10.11;85.33
13312;BME280;34033;48.672;9.376;2023-04-08T01:18:05;98803.16;;;10.10;84.36
13312;BME280;34033;48.672;9.376;2023-04-08T01:20:31;98809.56;;;10.11;84.32
13312;BME280;34033;48.672;9.376;2023-04-08T01:25:48;98811.63;;;10.14;84.84
13312;BME280;34033;48.672;9.376;2023-04-08T01:28:17;98802.63;;;9.97;84.26
13312;BME280;34033;48.672;9.376;2023-04-08T01:30:44;98804.97;;;9.95;84.66
13312;BME280;34033;48.672;9.376;2023-04-08T01:33:11;98814.41;;;9.87;84.58
13312;BME280;34033;48.672;9.376;2023-04-08T01:35:37;98810.78;;;9.83;84.98
13312;BME280;34033;48.672;9.376;2023-04-08T01:38:06;98798.00;;;9.82;85.35
13312;BME280;34033;48.672;9.376;2023-04-08T01:40:34;98806.38;;;9.82;85.43
13312;BME280;34033;48.672;9.376;2023-04-08T01:43:02;98815.56;;;9.83;84.79
13312;BME280;34033;48.672;9.376;2023-04-08T01:45:29;98807.88;;;9.76;85.86
13312;BME280;34033;48.672;9.376;2023-04-08T01:47:55;98803.91;;;9.77;85.58
13312;BME280;34033;48.672;9.376;2023-04-08T01:50:24;98799.19;;;9.81;85.81
13312;BME280;34033;48.672;9.376;2023-04-08T01:52:51;98804.44;;;9.86;86.07
13312;BME280;34033;48.672;9.376;2023-04-08T01:55:19;98804.44;;;9.86;85.60
13312;BME280;34033;48.672;9.376;2023-04-08T01:57:48;98800.44;;;9.87;85.11
13312;BME280;34033;48.672;9.376;2023-04-08T02:00:18;98797.25;;;9.85;84.94
13312;BME280;34033;48.672;9.376;2023-04-08T02:02:44;98803.56;;;9.82;84.72
13312;BME280;34033;48.672;9.376;2023-04-08T02:05:11;98802.34;;;9.80;84.79
13312;BME280;34033;48.672;9.376;2023-04-08T02:07:37;98807.88;;;9.76;84.96
13312;BME280;34033;48.672;9.376;2023-04-08T02:10:03;98805.41;;;9.71;84.57
13312;BME280;34033;48.672;9.376;2023-04-08T02:12:28;98806.03;;;9.61;84.64
13312;BME280;34033;48.672;9.376;2023-04-08T02:14:54;98800.34;;;9.54;84.92
13312;BME280;34033;48.672;9.376;2023-04-08T02:17:41;98801.16;;;9.54;85.44
13312;BME280;34033;48.672;9.376;2023-04-08T02:20:19;98801.59;;;9.56;85.45
13312;BME280;34033;48.672;9.376;2023-04-08T02:23:20;98811.16;;;9.55;85.48
13312;BME280;34033;48.672;9.376;2023-04-08T02:25:47;98800.78;;;9.56;85.85
13312;BME280;34033;48.672;9.376;2023-04-08T02:28:13;98808.72;;;9.54;85.58
13312;BME280;34033;48.672;9.376;2023-04-08T02:30:47;98806.03;;;9.61;85.47
13312;BME280;34033;48.672;9.376;2023-04-08T02:33:13;98804.59;;;9.71;85.30
13312;BME280;34033;48.672;9.376;2023-04-08T02:35:40;98813.38;;;9.69;84.75
13312;BME280;34033;48.672;9.376;2023-04-08T02:38:06;98809.75;;;9.69;84.82
13312;BME280;34033;48.672;9.376;2023-04-08T02:40:32;98813.28;;;9.66;84.73
13312;BME280;34033;48.672;9.376;2023-04-08T02:42:59;98806.41;;;9.59;84.41
13312;BME280;34033;48.672;9.376;2023-04-08T02:45:34;98812.88;;;9.63;84.71
13312;BME280;34033;48.672;9.376;2023-04-08T02:48:02;98817.66;;;9.63;84.99
13312;BME280;34033;48.672;9.376;2023-04-08T02:50:27;98819.50;;;9.55;84.23
13312;BME280;34033;48.672;9.376;2023-04-08T02:52:53;98817.09;;;9.54;84.61
13312;BME280;34033;48.672;9.376;2023-04-08T02:55:18;98812.81;;;9.60;84.54
13312;BME280;34033;48.672;9.376;2023-04-08T02:57:43;98818.06;;;9.65;84.88
13312;BME280;34033;48.672;9.376;2023-04-08T03:00:09;98819.19;;;9.60;83.96
13312;BME280;34033;48.672;9.376;2023-04-08T03:02:34;98813.38;;;9.69;83.72
13312;BME280;34033;48.672;9.376;2023-04-08T03:05:00;98820.66;;;9.77;84.09
13312;BME280;34033;48.672;9.376;2023-04-08T03:07:25;98816.72;;;9.82;83.54
13312;BME280;34033;48.672;9.376;2023-04-08T03:09:52;98821.53;;;9.81;82.92
13312;BME280;34033;48.672;9.376;2023-04-08T03:12:19;98820.31;;;9.82;82.89
13312;BME280;34033;48.672;9.376;2023-04-08T03:14:44;98816.69;;;9.78;82.24
13312;BME280;34033;48.672;9.376;2023-04-08T03:17:10;98823.06;;;9.79;82.29
13312;BME280;34033;48.672;9.376;2023-04-08T03:19:35;98816.56;;;9.71;81.37
13312;BME280;34033;48.672;9.376;2023-04-08T03:22:00;98818.94;;;9.69;81.96
13312;BME280;34033;48.672;9.376;2023-04-08T03:24:26;98813.44;;;9.76;82.15
13312;BME280;34033;48.672;9.376;2023-04-08T03:26:51;98811.13;;;9.82;82.83
13312;BME280;34033;48.672;9.376;2023-04-08T03:29:16;98821.22;;;9.86;82.66
13312;BME280;34033;48.672;9.376;2023-04-08T03:31:42;98827.28;;;9.92;82.50
13312;BME280;34033;48.672;9.376;2023-04-08T03:34:07;98823.34;;;9.96;81.75
13312;BME280;34033;48.672;9.376;2023-04-08T03:36:32;98816.19;;;9.99;81.88
13312;BME280;34033;48.672;9.376;2023-04-08T03:38:58;98824.22;;;10.04;81.54
13312;BME280;34033;48.672;9.376;2023-04-08T03:41:23;98826.63;;;10.02;81.12
13312;BME280;34033;48.672;9.376;2023-04-08T03:43:48;98822.91;;;9.94;81.10
13312;BME280;34033;48.672;9.376;2023-04-08T03:46:14;98815.34;;;9.95;81.04
13312;BME280;34033;48.672;9.376;2023-04-08T03:48:39;98824.09;;;9.93;80.80
13312;BME280;34033;48.672;9.376;2023-04-08T03:51:04;98821.09;;;9.79;80.98
13312;BME280;34033;48.672;9.376;2023-04-08T03:53:30;98821.31;;;9.67;81.28
13312;BME280;34033;48.672;9.376;2023-04-08T03:55:56;98817.28;;;9.65;81.79
13312;BME280;34033;48.672;9.376;2023-04-08T03:58:22;98821.25;;;9.63;82.77
13312;BME280;34033;48.672;9.376;2023-04-08T04:00:47;98820.16;;;9.72;82.54
13312;BME280;34033;48.672;9.376;2023-04-08T04:03:13;98823.03;;;9.75;82.10
13312;BME280;34033;48.672;9.376;2023-04-08T04:05:39;98818.75;;;9.81;82.30
13312;BME280;34033;48.672;9.376;2023-04-08T04:08:04;98819.16;;;9.83;82.15
13312;BME280;34033;48.672;9.376;2023-04-08T04:10:30;98817.97;;;9.84;82.43
13312;BME280;34033;48.672;9.376;2023-04-08T04:12:55;98814.81;;;9.86;82.28
13312;BME280;34033;48.672;9.376;2023-04-08T04:15:21;98818.00;;;9.88;82.08
13312;BME280;34033;48.672;9.376;2023-04-08T04:17:49;98820.28;;;9.79;82.01
13312;BME280;34033;48.672;9.376;2023-04-08T04:20:15;98813.03;;;9.74;82.17
13312;BME280;34033;48.672;9.376;2023-04-08T04:22:40;98822.63;;;9.77;82.59
13312;BME280;34033;48.672;9.376;2023-04-08T04:25:06;98816.56;;;9.71;81.97
13312;BME280;34033;48.672;9.376;2023-04-08T04:27:32;98829.94;;;9.58;82.23
13312;BME280;34033;48.672;9.376;2023-04-08T04:29:57;98828.38;;;9.61;82.87
13312;BME280;34033;48.672;9.376;2023-04-08T04:32:22;98835.63;;;9.66;82.56
13312;BME280;34033;48.672;9.376;2023-04-08T04:34:48;98837.31;;;9.70;81.94
13312;BME280;34033;48.672;9.376;2023-04-08T04:37:13;98829.72;;;9.71;81.52
13312;BME280;34033;48.672;9.376;2023-04-08T04:39:38;98841.69;;;9.71;81.20
13312;BME280;34033;48.672;9.376;2023-04-08T04:42:03;98840.97;;;9.74;81.81
13312;BME280;34033;48.672;9.376;2023-04-08T04:44:29;98839.34;;;9.73;81.66
13312;BME280;34033;48.672;9.376;2023-04-08T04:46:55;98831.81;;;9.77;82.46
13312;BME280;34033;48.672;9.376;2023-04-08T04:49:20;98839.81;;;9.79;82.70
13312;BME280;34033;48.672;9.376;2023-04-08T04:51:45;98838.50;;;9.69;83.00
13312;BME280;34033;48.672;9.376;2023-04-08T04:54:11;98839.31;;;9.70;83.14
13312;BME280;34033;48.672;9.376;2023-04-08T04:56:36;98843.75;;;9.74;83.49
13312;BME280;34033;48.672;9.376;2023-04-08T04:59:02;98843.25;;;9.69;83.55
13312;BME280;34033;48.672;9.376;2023-04-08T05:01:29;98849.59;;;9.66;83.51
13312;BME280;34033;48.672;9.376;2023-04-08T05:03:54;98852.00;;;9.67;83.66
13312;BME280;34033;48.672;9.376;2023-04-08T05:06:22;98860.44;;;9.71;84.01
13312;BME280;34033;48.672;9.376;2023-04-08T05:08:47;98849.34;;;9.74;83.54
13312;BME280;34033;48.672;9.376;2023-04-08T05:11:12;98852.94;;;9.75;82.76
13312;BME280;34033;48.672;9.376;2023-04-08T05:13:38;98857.94;;;9.66;82.47
13312;BME280;34033;48.672;9.376;2023-04-08T05:16:03;98858.66;;;9.59;82.60
13312;BME280;34033;48.672;9.376;2023-04-08T05:18:29;98860.56;;;9.55;83.03
13312;BME280;34033;48.672;9.376;2023-04-08T05:20:54;98864.25;;;9.59;82.84
13312;BME280;34033;48.672;9.376;2023-04-08T05:23:19;98857.47;;;9.60;82.34
13312;BME280;34033;48.672;9.376;2023-04-08T05:25:45;98861.56;;;9.66;82.79
13312;BME280;34033;48.672;9.376;2023-04-08T05:28:10;98863.97;;;9.68;82.45
13312;BME280;34033;48.672;9.376;2023-04-08T05:30:36;98861.81;;;9.80;81.73
13312;BME280;34033;48.672;9.376;2023-04-08T05:33:02;98865.59;;;9.95;81.04
13312;BME280;34033;48.672;9.376;2023-04-08T05:35:27;98866.56;;;10.06;80.40
13312;BME280;34033;48.672;9.376;2023-04-08T05:37:53;98872.78;;;10.19;79.51
13312;BME280;34033;48.672;9.376;2023-04-08T05:40:18;98875.66;;;10.26;78.94
13312;BME280;34033;48.672;9.376;2023-04-08T05:42:44;98879.66;;;10.25;78.66
13312;BME280;34033;48.672;9.376;2023-04-08T05:45:09;98876.94;;;10.32;78.55
13312;BME280;34033;48.672;9.376;2023-04-08T05:47:35;98885.44;;;10.39;78.28
13312;BME280;34033;48.672;9.376;2023-04-08T05:50:00;98885.09;;;10.44;77.99
13312;BME280;34033;48.672;9.376;2023-04-08T05:52:26;98880.78;;;10.50;77.39
13312;BME280;34033;48.672;9.376;2023-04-08T05:54:51;98886.47;;;10.57;77.23
13312;BME280;34033;48.672;9.376;2023-04-08T05:57:16;98883.22;;;10.52;76.52
13312;BME280;34033;48.672;9.376;2023-04-08T05:59:42;98893.63;;;10.55;76.61
13312;BME280;34033;48.672;9.376;2023-04-08T06:02:07;98887.34;;;10.65;76.62
13312;BME280;34033;48.672;9.376;2023-04-08T06:04:32;98890.69;;;10.74;76.43
13312;BME280;34033;48.672;9.376;2023-04-08T06:06:58;98901.94;;;10.81;75.79
13312;BME280;34033;48.672;9.376;2023-04-08T06:09:25;98897.97;;;10.82;75.45
13312;BME280;34033;48.672;9.376;2023-04-08T06:11:50;98901.56;;;10.82;75.47
13312;BME280;34033;48.672;9.376;2023-04-08T06:14:16;98904.25;;;10.75;75.26
13312;BME280;34033;48.672;9.376;2023-04-08T06:16:41;98904.06;;;10.58;76.03
13312;BME280;34033;48.672;9.376;2023-04-08T06:19:06;98911.66;;;10.91;82.37
13312;BME280;34033;48.672;9.376;2023-04-08T06:21:32;98910.03;;;10.86;78.33
13312;BME280;34033;48.672;9.376;2023-04-08T06:23:57;98908.34;;;10.81;76.32
13312;BME280;34033;48.672;9.376;2023-04-08T06:26:22;98915.38;;;10.68;75.86
13312;BME280;34033;48.672;9.376;2023-04-08T06:28:48;98908.06;;;10.60;76.03
13312;BME280;34033;48.672;9.376;2023-04-08T06:31:13;98907.88;;;10.46;76.13
13312;BME280;34033;48.672;9.376;2023-04-08T06:33:38;98916.53;;;10.37;76.37
13312;BME280;34033;48.672;9.376;2023-04-08T06:36:05;98921.56;;;10.25;77.39
13312;BME280;34033;48.672;9.376;2023-04-08T06:38:31;98915.97;;;10.25;77.54
13312;BME280;34033;48.672;9.376;2023-04-08T06:41:06;98925.94;;;10.26;78.30
13312;BME280;34033;48.672;9.376;2023-04-08T06:43:33;98926.28;;;10.21;78.49
13312;BME280;34033;48.672;9.376;2023-04-08T06:45:58;98924.09;;;10.11;78.55
13312;BME280;34033;48.672;9.376;2023-04-08T06:48:24;98930.44;;;10.08;78.71
13312;BME280;34033;48.672;9.376;2023-04-08T06:50:58;98930.00;;;10.05;79.08
13312;BME280;34033;48.672;9.376;2023-04-08T06:53:25;98932.47;;;10.11;78.59
13312;BME280;34033;48.672;9.376;2023-04-08T06:55:50;98937.75;;;10.16;78.81
13312;BME280;34033;48.672;9.376;2023-04-08T06:58:16;98929.19;;;10.05;78.53
13312;BME280;34033;48.672;9.376;2023-04-08T07:00:41;98938.91;;;9.88;79.52
13312;BME280;34033;48.672;9.376;2023-04-08T07:03:07;98950.19;;;9.95;79.15
13312;BME280;34033;48.672;9.376;2023-04-08T07:05:36;98938.50;;;9.86;78.68
13312;BME280;34033;48.672;9.376;2023-04-08T07:08:02;98938.69;;;9.74;79.01
13312;BME280;34033;48.672;9.376;2023-04-08T07:10:27;98941.28;;;9.86;78.46
13312;BME280;34033;48.672;9.376;2023-04-08T07:12:53;98942.88;;;9.87;78.31
13312;BME280;34033;48.672;9.376;2023-04-08T07:15:18;98938.72;;;10.00;77.92
13312;BME280;34033;48.672;9.376;2023-04-08T07:17:43;98935.22;;;10.07;76.95
13312;BME280;34033;48.672;9.376;2023-04-08T07:20:09;98947.69;;;10.13;76.99
13312;BME280;34033;48.672;9.376;2023-04-08T07:22:35;98935.94;;;10.27;76.67
13312;BME280;34033;48.672;9.376;2023-04-08T07:25:00;98942.47;;;10.34;76.54
13312;BME280;34033;48.672;9.376;2023-04-08T07:27:27;98953.78;;;10.45;75.87
13312;BME280;34033;48.672;9.376;2023-04-08T07:29:52;98955.41;;;10.46;75.97
13312;BME280;34033;48.672;9.376;2023-04-08T07:32:18;98950.63;;;10.47;75.61
13312;BME280;34033;48.672;9.376;2023-04-08T07:34:43;98949.53;;;10.55;75.58
13312;BME280;34033;48.672;9.376;2023-04-08T07:37:09;98956.16;;;10.69;75.58
13312;BME280;34033;48.672;9.376;2023-04-08T07:39:35;98952.25;;;10.77;75.09
13312;BME280;34033;48.672;9.376;2023-04-08T07:42:00;98960.28;;;10.82;74.55
13312;BME280;34033;48.672;9.376;2023-04-08T07:44:25;98966.22;;;10.77;74.09
13312;BME280;34033;48.672;9.376;2023-04-08T07:46:50;98957.81;;;10.74;73.98
13312;BME280;34033;48.672;9.376;2023-04-08T07:49:16;98961.06;;;10.79;73.81
13312;BME280;34033;48.672;9.376;2023-04-08T07:51:42;98971.47;;;10.82;74.04
13312;BME280;34033;48.672;9.376;2023-04-08T07:54:07;98967.59;;;10.91;73.70
13312;BME280;34033;48.672;9.376;2023-04-08T07:56:34;98964.16;;;11.04;72.85
13312;BME280;34033;48.672;9.376;2023-04-08T07:58:59;98964.81;;;11.24;72.46
13312;BME280;34033;48.672;9.376;2023-04-08T08:01:25;98952.56;;;11.36;72.30
13312;BME280;34033;48.672;9.376;2023-04-08T08:03:51;98963.00;;;11.42;71.71
13312;BME280;34033;48.672;9.376;2023-04-08T08:06:17;98958.31;;;11.50;70.99
13312;BME280;34033;48.672;9.376;2023-04-08T08:08:43;98961.00;;;11.39;71.22
13312;BME280;34033;48.672;9.376;2023-04-08T08:11:08;98953.19;;;11.59;69.71
13312;BME280;34033;48.672;9.376;2023-04-08T08:13:33;98964.09;;;11.67;70.33
13312;BME280;34033;48.672;9.376;2023-04-08T08:15:59;98969.97;;;11.59;69.14
13312;BME280;34033;48.672;9.376;2023-04-08T08:18:24;98963.53;;;11.51;69.87
13312;BME280;34033;48.672;9.376;2023-04-08T08:20:50;98966.03;;;11.63;70.14
13312;BME280;34033;48.672;9.376;2023-04-08T08:23:15;98972.84;;;11.62;68.39
13312;BME280;34033;48.672;9.376;2023-04-08T08:25:41;98973.50;;;11.52;69.05
13312;BME280;34033;48.672;9.376;2023-04-08T08:28:06;98971.06;;;11.47;68.63
13312;BME280;34033;48.672;9.376;2023-04-08T08:30:32;98969.00;;;11.41;68.62
13312;BME280;34033;48.672;9.376;2023-04-08T08:32:57;98981.19;;;11.22;69.55
13312;BME280;34033;48.672;9.376;2023-04-08T08:35:24;98983.19;;;11.25;69.46
13312;BME280;34033;48.672;9.376;2023-04-08T08:37:50;98986.47;;;11.30;69.40
13312;BME280;34033;48.672;9.376;2023-04-08T08:40:15;98982.34;;;11.17;69.35
13312;BME280;34033;48.672;9.376;2023-04-08T08:42:42;98984.06;;;11.29;69.15
13312;BME280;34033;48.672;9.376;2023-04-08T08:45:14;98989.81;;;11.43;69.57
13312;BME280;34033;48.672;9.376;2023-04-08T08:47:40;98987.50;;;11.52;68.62
13312;BME280;34033;48.672;9.376;2023-04-08T08:50:05;98991.97;;;11.57;68.83
13312;BME280;34033;48.672;9.376;2023-04-08T08:52:31;98986.06;;;11.65;68.04
13312;BME280;34033;48.672;9.376;2023-04-08T08:54:57;98985.44;;;11.79;67.26
13312;BME280;34033;48.672;9.376;2023-04-08T08:57:23;98992.06;;;12.01;67.06
13312;BME280;34033;48.672;9.376;2023-04-08T08:59:48;98984.44;;;12.01;65.46
13312;BME280;34033;48.672;9.376;2023-04-08T09:02:27;98992.16;;;12.15;65.92
13312;BME280;34033;48.672;9.376;2023-04-08T09:07:24;98995.94;;;12.37;65.11
13312;BME280;34033;48.672;9.376;2023-04-08T09:09:54;99000.75;;;12.36;64.14
13312;BME280;34033;48.672;9.376;2023-04-08T09:12:20;98994.81;;;12.48;64.11
13312;BME280;34033;48.672;9.376;2023-04-08T09:14:46;98992.47;;;12.58;62.78
13312;BME280;34033;48.672;9.376;2023-04-08T09:17:12;99007.00;;;12.74;62.56
13312;BME280;34033;48.672;9.376;2023-04-08T09:19:38;98995.88;;;12.88;62.67
13312;BME280;34033;48.672;9.376;2023-04-08T09:22:08;99003.59;;;13.09;62.06
13312;BME280;34033;48.672;9.376;2023-04-08T09:24:34;98996.78;;;13.10;60.97
13312;BME280;34033;48.672;9.376;2023-04-08T09:26:59;98998.75;;;13.02;59.64
13312;BME280;34033;48.672;9.376;2023-04-08T09:29:25;98987.09;;;12.96;59.18
13312;BME280;34033;48.672;9.376;2023-04-08T09:31:55;98997.88;;;12.91;59.33
13312;BME280;34033;48.672;9.376;2023-04-08T09:34:21;98990.28;;;12.88;58.59
13312;BME280;34033;48.672;9.376;2023-04-08T09:36:51;98995.94;;;12.95;58.93
13312;BME280;34033;48.672;9.376;2023-04-08T09:39:16;98989.22;;;13.14;58.58
13312;BME280;34033;48.672;9.376;2023-04-08T09:41:42;98988.47;;;13.31;56.81
13312;BME280;34033;48.672;9.376;2023-04-08T09:44:09;98984.91;;;13.38;55.06
13312;BME280;34033;48.672;9.376;2023-04-08T09:49:25;98984.94;;;13.45;55.09
13312;BME280;34033;48.672;9.376;2023-04-08T09:52:10;98988.56;;;13.63;55.44
13312;BME280;34033;48.672;9.376;2023-04-08T09:54:52;98989.38;;;13.60;55.20
13312;BME280;34033;48.672;9.376;2023-04-08T10:00:16;98993.81;;;13.68;51.95
13312;BME280;34033;48.672;9.376;2023-04-08T10:03:28;98984.22;;;14.01;52.51
13312;BME280;34033;48.672;9.376;2023-04-08T10:05:37;98983.06;;;14.41;53.10
13312;BME280;34033;48.672;9.376;2023-04-08T10:08:05;98983.47;;;14.53;52.32
13312;BME280;34033;48.672;9.376;2023-04-08T10:10:33;98987.06;;;14.65;52.73
13312;BME280;34033;48.672;9.376;2023-04-08T10:12:58;98988.69;;;14.44;51.49
13312;BME280;34033;48.672;9.376;2023-04-08T10:15:26;98981.84;;;14.52;51.48
13312;BME280;34033;48.672;9.376;2023-04-08T10:20:47;98987.06;;;14.54;50.68
13312;BME280;34033;48.672;9.376;2023-04-08T10:23:17;98981.81;;;14.63;50.91
13312;BME280;34033;48.672;9.376;2023-04-08T10:25:49;98980.22;;;14.66;51.84
13312;BME280;34033;48.672;9.376;2023-04-08T10:30:44;98988.28;;;14.32;48.97
13312;BME280;34033;48.672;9.376;2023-04-08T10:33:31;98986.63;;;14.06;48.64
13312;BME280;34033;48.672;9.376;2023-04-08T10:35:59;98984.59;;;13.85;49.22
13312;BME280;34033;48.672;9.376;2023-04-08T10:38:24;98983.00;;;13.91;50.05
13312;BME280;34033;48.672;9.376;2023-04-08T10:40:50;98985.03;;;13.91;50.65
13312;BME280;34033;48.672;9.376;2023-04-08T10:43:16;98984.19;;;13.69;50.28
13312;BME280;34033;48.672;9.376;2023-04-08T10:45:43;98981.28;;;13.41;49.89
13312;BME280;34033;48.672;9.376;2023-04-08T10:50:40;98984.03;;;13.19;51.29
13312;BME280;34033;48.672;9.376;2023-04-08T10:53:06;98986.81;;;13.16;51.99
13312;BME280;34033;48.672;9.376;2023-04-08T10:55:32;98987.94;;;13.04;51.50
13312;BME280;34033;48.672;9.376;2023-04-08T10:58:08;98989.03;;;12.82;50.72
13312;BME280;34033;48.672;9.376;2023-04-08T11:00:38;98985.31;;;12.64;51.28
13312;BME280;34033;48.672;9.376;2023-04-08T11:03:08;98993.69;;;12.57;51.71
13312;BME280;34033;48.672;9.376;2023-04-08T11:05:34;98990.97;;;12.67;52.86
13312;BME280;34033;48.672;9.376;2023-04-08T11:08:01;98984.94;;;12.69;52.36
13312;BME280;34033;48.672;9.376;2023-04-08T11:10:27;98992.53;;;12.68;52.21
13312;BME280;34033;48.672;9.376;2023-04-08T11:12:57;98987.78;;;12.72;51.88
13312;BME280;34033;48.672;9.376;2023-04-08T11:15:28;98988.22;;;12.78;51.99
13312;BME280;34033;48.672;9.376;2023-04-08T11:17:54;98986.59;;;12.73;51.88
13312;BME280;34033;48.672;9.376;2023-04-08T11:20:20;98985.44;;;12.85;51.16
13312;BME280;34033;48.672;9.376;2023-04-08T11:22:46;98980.28;;;12.98;51.73
13312;BME280;34033;48.672;9.376;2023-04-08T11:25:12;98985.03;;;12.86;49.98
13312;BME280;34033;48.672;9.376;2023-04-08T11:27:38;98985.00;;;12.79;50.24
13312;BME280;34033;48.672;9.376;2023-04-08T11:30:05;98983.34;;;12.71;49.85
13312;BME280;34033;48.672;9.376;2023-04-08T11:32:31;98987.28;;;12.60;49.40
13312;BME280;34033;48.672;9.376;2023-04-08T11:35:01;98987.72;;;12.69;49.57
13312;BME280;34033;48.672;9.376;2023-04-08T11:37:36;98987.03;;;12.82;49.50
13312;BME280;34033;48.672;9.376;2023-04-08T11:40:06;98993.13;;;12.95;48.68
13312;BME280;34033;48.672;9.376;2023-04-08T11:42:31;98987.53;;;12.99;48.73
13312;BME280;34033;48.672;9.376;2023-04-08T11:44:57;98985.09;;;12.97;47.76
13312;BME280;34033;48.672;9.376;2023-04-08T11:47:33;98986.22;;;12.82;48.59
13312;BME280;34033;48.672;9.376;2023-04-08T11:49:58;98990.22;;;12.77;47.59
13312;BME280;34033;48.672;9.376;2023-04-08T11:52:50;98981.44;;;12.86;48.19
13312;BME280;34033;48.672;9.376;2023-04-08T11:55:22;98985.03;;;12.83;46.98
13312;BME280;34033;48.672;9.376;2023-04-08T11:57:48;98979.78;;;12.78;45.07
13312;BME280;34033;48.672;9.376;2023-04-08T12:00:14;98978.94;;;12.70;44.73
13312;BME280;34033;48.672;9.376;2023-04-08T12:02:39;98978.56;;;12.72;44.14
13312;BME280;34033;48.672;9.376;2023-04-08T12:05:05;98980.41;;;12.50;43.24
13312;BME280;34033;48.672;9.376;2023-04-08T12:07:30;98988.03;;;12.53;42.87
13312;BME280;34033;48.672;9.376;2023-04-08T12:09:56;98990.41;;;12.47;41.81
13312;BME280;34033;48.672;9.376;2023-04-08T12:12:21;98991.56;;;12.39;41.78
13312;BME280;34033;48.672;9.376;2023-04-08T12:14:47;98988.78;;;12.43;41.04
13312;BME280;34033;48.672;9.376;2023-04-08T12:17:12;98998.34;;;12.38;41.95
13312;BME280;34033;48.672;9.376;2023-04-08T12:19:37;98986.63;;;12.22;42.28
13312;BME280;34033;48.672;9.376;2023-04-08T12:22:06;98993.50;;;12.35;43.58
13312;BME280;34033;48.672;9.376;2023-04-08T12:24:31;99002.06;;;12.53;43.81
13312;BME280;34033;48.672;9.376;2023-04-08T12:26:57;99002.94;;;12.64;42.99
13312;BME280;34033;48.672;9.376;2023-04-08T12:29:23;98995.03;;;12.80;43.33
13312;BME280;34033;48.672;9.376;2023-04-08T12:31:48;99000.31;;;12.89;43.19
13312;BME280;34033;48.672;9.376;2023-04-08T12:34:14;99007.47;;;12.83;42.84
13312;BME280;34033;48.672;9.376;2023-04-08T12:36:39;99001.50;;;12.88;42.95
13312;BME280;34033;48.672;9.376;2023-04-08T12:39:05;98983.09;;;12.94;42.85
13312;BME280;34033;48.672;9.376;2023-04-08T12:41:31;98990.31;;;13.02;44.21
13312;BME280;34033;48.672;9.376;2023-04-08T12:43:57;98983.16;;;13.08;43.73
13312;BME280;34033;48.672;9.376;2023-04-08T12:46:22;98988.84;;;13.19;44.07
13312;BME280;34033;48.672;9.376;2023-04-08T12:48:48;98987.59;;;13.13;44.88
13312;BME280;34033;48.672;9.376;2023-04-08T12:51:13;98991.69;;;13.22;46.22
13312;BME280;34033;48.672;9.376;2023-04-08T12:53:38;98996.91;;;13.34;46.13
13312;BME280;34033;48.672;9.376;2023-04-08T12:56:04;98992.09;;;13.35;45.96
13312;BME280;34033;48.672;9.376;2023-04-08T12:58:29;98989.69;;;13.30;46.38
13312;BME280;34033;48.672;9.376;2023-04-08T13:00:55;98996.09;;;13.30;46.06
13312;BME280;34033;48.672;9.376;2023-04-08T13:03:20;98989.22;;;13.14;45.81
13312;BME280;34033;48.672;9.376;2023-04-08T13:05:45;98990.44;;;13.16;46.98
13312;BME280;34033;48.672;9.376;2023-04-08T13:08:11;98991.63;;;13.15;47.26
13312;BME280;34033;48.672;9.376;2023-04-08T13:10:37;98987.63;;;13.20;47.06
13312;BME280;34033;48.672;9.376;2023-04-08T13:13:02;98996.88;;;13.20;46.99
13312;BME280;34033;48.672;9.376;2023-04-08T13:15:27;98986.44;;;13.17;47.30
13312;BME280;34033;48.672;9.376;2023-04-08T13:17:53;98992.06;;;13.17;47.20
13312;BME280;34033;48.672;9.376;2023-04-08T13:20:18;98987.63;;;13.16;47.89
13312;BME280;34033;48.672;9.376;2023-04-08T13:22:43;98989.50;;;12.94;47.34
13312;BME280;34033;48.672;9.376;2023-04-08T13:25:09;98985.09;;;12.97;47.13